createdAt,value
2019-02-27T00:02:43.261Z,6.90
2019-02-27T00:06:53.609Z,6.90
2019-02-27T00:11:04.910Z,6.70
2019-02-27T00:15:16.140Z,6.60
2019-02-27T00:19:31.133Z,6.60
2019-02-27T00:23:41.381Z,6.60
2019-02-27T00:32:43.436Z,6.30
2019-02-27T00:37:14.285Z,6.20
2019-02-27T00:41:27.123Z,6.10
2019-02-27T00:45:40.034Z,6.20
2019-02-27T00:49:51.224Z,6.20
2019-02-27T00:54:02.568Z,6.20
2019-02-27T00:58:13.796Z,6.20
2019-02-27T01:02:24.976Z,6.10
2019-02-27T01:06:36.295Z,6.00
2019-02-27T01:10:47.621Z,6.00
2019-02-27T01:14:58.873Z,6.00
2019-02-27T01:19:10.139Z,6.10
2019-02-27T01:23:28.830Z,6.20
2019-02-27T01:36:51.655Z,6.10
2019-02-27T01:45:23.844Z,6.00
2019-02-27T01:49:35.016Z,5.90
2019-02-27T01:53:46.179Z,5.80
2019-02-27T01:57:59.710Z,5.80
2019-02-27T02:02:18.525Z,5.70
2019-02-27T02:06:32.224Z,5.50
2019-02-27T02:10:50.099Z,5.40
2019-02-27T02:20:18.297Z,5.40
2019-02-27T02:39:26.495Z,5.00
2019-02-27T02:44:00.520Z,4.90
2019-02-27T02:48:17.969Z,4.80
2019-02-27T02:52:32.175Z,4.70
2019-02-27T02:57:04.846Z,4.60
2019-02-27T03:01:28.820Z,4.60
2019-02-27T03:05:43.424Z,4.50
2019-02-27T03:10:00.452Z,4.30
2019-02-27T03:14:35.317Z,4.20
2019-02-27T03:19:15.493Z,4.10
2019-02-27T03:23:52.225Z,4.00
2019-02-27T03:28:33.427Z,4.00
2019-02-27T03:32:54.027Z,4.10
2019-02-27T03:37:38.140Z,4.10
2019-02-27T03:42:03.238Z,4.10
2019-02-27T03:46:33.859Z,4.20
2019-02-27T03:50:56.991Z,4.10
2019-02-27T03:55:32.831Z,4.00
2019-02-27T03:59:51.212Z,3.90
2019-02-27T04:04:11.832Z,3.90
2019-02-27T04:08:43.487Z,3.80
2019-02-27T04:12:53.182Z,3.80
2019-02-27T04:17:07.086Z,3.80
2019-02-27T04:21:17.760Z,3.80
2019-02-27T04:25:31.558Z,3.80
2019-02-27T04:29:42.561Z,3.70
2019-02-27T04:33:53.810Z,3.70
2019-02-27T04:38:04.368Z,3.70
2019-02-27T04:42:15.640Z,3.70
2019-02-27T04:46:26.841Z,3.70
2019-02-27T04:50:37.960Z,3.70
2019-02-27T04:54:49.119Z,3.70
2019-02-27T04:59:00.411Z,3.80
2019-02-27T05:03:11.680Z,3.80
2019-02-27T05:07:22.901Z,3.80
2019-02-27T05:11:34.139Z,3.80
2019-02-27T05:15:45.373Z,3.80
2019-02-27T05:19:56.637Z,3.80
2019-02-27T05:24:08.626Z,3.80
2019-02-27T05:28:19.942Z,3.90
2019-02-27T05:32:30.517Z,3.80
2019-02-27T05:36:41.652Z,3.80
2019-02-27T05:40:52.780Z,3.70
2019-02-27T05:45:04.849Z,3.70
2019-02-27T05:49:16.090Z,3.70
2019-02-27T05:53:27.632Z,3.60
2019-02-27T05:57:38.929Z,3.60
2019-02-27T06:01:50.152Z,3.60
2019-02-27T06:06:01.389Z,3.50
2019-02-27T06:10:19.716Z,3.50
2019-02-27T06:14:28.095Z,3.40
2019-02-27T06:18:39.271Z,3.40
2019-02-27T06:22:50.727Z,3.50
2019-02-27T06:27:06.033Z,3.60
2019-02-27T06:31:14.688Z,3.70
2019-02-27T06:35:25.927Z,3.80
2019-02-27T06:39:37.091Z,3.80
2019-02-27T06:43:48.323Z,3.80
2019-02-27T06:47:59.547Z,3.80
2019-02-27T06:52:10.823Z,3.80
2019-02-27T06:56:22.184Z,3.80
2019-02-27T07:00:38.502Z,3.90
2019-02-27T07:04:50.048Z,3.90
2019-02-27T07:09:01.214Z,3.90
2019-02-27T07:13:12.393Z,4.00
2019-02-27T07:17:23.568Z,4.00
2019-02-27T07:21:34.832Z,4.10
2019-02-27T07:25:47.876Z,4.30
2019-02-27T07:29:58.978Z,4.50
2019-02-27T07:34:14.237Z,4.90
2019-02-27T07:38:23.016Z,5.80
2019-02-27T07:42:36.224Z,6.50
2019-02-27T07:46:46.994Z,7.00
2019-02-27T07:50:58.093Z,7.30
2019-02-27T07:55:20.798Z,7.60
2019-02-27T07:59:25.337Z,7.90
2019-02-27T08:03:36.690Z,8.40
2019-02-27T08:07:49.078Z,8.60
2019-02-27T08:12:01.981Z,8.90
2019-02-27T08:16:13.112Z,9.00
2019-02-27T08:20:24.366Z,9.20
2019-02-27T08:24:35.737Z,9.60
2019-02-27T08:28:47.209Z,10.00
2019-02-27T08:32:58.414Z,10.20
2019-02-27T08:37:09.679Z,10.60
2019-02-27T08:41:20.920Z,10.90
2019-02-27T08:45:32.061Z,11.30
2019-02-27T08:49:42.185Z,11.50
2019-02-27T08:53:53.525Z,11.70
2019-02-27T08:58:04.677Z,12.00
2019-02-27T09:02:16.031Z,12.30
2019-02-27T09:06:28.148Z,12.50
2019-02-27T09:10:39.608Z,12.70
2019-02-27T09:14:50.728Z,12.90
2019-02-27T09:19:01.923Z,12.90
2019-02-27T09:23:13.183Z,13.00
2019-02-27T09:27:24.524Z,13.40
2019-02-27T09:31:37.772Z,13.70
2019-02-27T09:35:49.563Z,14.10
2019-02-27T09:40:04.525Z,14.60
2019-02-27T09:44:13.734Z,14.60
2019-02-27T09:48:25.606Z,14.60
2019-02-27T09:52:36.771Z,14.60
2019-02-27T09:56:49.080Z,14.70
2019-02-27T10:01:04.517Z,15.00
2019-02-27T10:05:17.049Z,15.40
2019-02-27T10:09:29.484Z,15.80
2019-02-27T10:13:52.300Z,16.30
2019-02-27T10:18:04.318Z,16.30
2019-02-27T10:22:17.838Z,17.10
2019-02-27T10:26:29.266Z,17.70
2019-02-27T10:30:46.938Z,17.90
2019-02-27T10:34:58.761Z,18.80
2019-02-27T10:39:10.603Z,19.50
2019-02-27T10:43:21.836Z,20.20
2019-02-27T10:47:36.501Z,20.60
2019-02-27T10:51:46.800Z,20.70
2019-02-27T10:56:00.235Z,20.90
2019-02-27T11:00:32.226Z,21.00
2019-02-27T11:04:43.922Z,21.40
2019-02-27T11:08:56.703Z,21.90
2019-02-27T11:13:07.977Z,22.10
2019-02-27T11:17:19.317Z,22.00
2019-02-27T11:21:34.682Z,22.30
2019-02-27T11:25:45.919Z,23.00
2019-02-27T11:30:01.251Z,23.30
2019-02-27T11:34:16.081Z,22.70
2019-02-27T11:38:26.989Z,22.40
2019-02-27T11:42:39.175Z,23.00
2019-02-27T11:46:58.455Z,22.60
2019-02-27T11:51:05.893Z,22.60
2019-02-27T11:55:18.317Z,22.70
2019-02-27T11:59:29.492Z,23.00
2019-02-27T12:03:45.584Z,23.50
2019-02-27T12:07:53.846Z,23.40
2019-02-27T12:12:05.404Z,23.40
2019-02-27T12:16:18.339Z,23.30
2019-02-27T12:20:29.624Z,23.10
2019-02-27T12:24:40.780Z,23.20
2019-02-27T12:28:52.647Z,22.70
2019-02-27T12:33:04.072Z,23.10
2019-02-27T12:37:28.070Z,23.50
2019-02-27T12:41:33.347Z,22.00
2019-02-27T12:45:44.669Z,19.40
2019-02-27T12:49:55.825Z,17.80
2019-02-27T12:54:07.001Z,17.20
2019-02-27T12:58:19.712Z,17.00
2019-02-27T13:02:35.715Z,17.00
2019-02-27T13:06:45.061Z,16.90
2019-02-27T13:10:56.370Z,16.90
2019-02-27T13:15:10.683Z,16.90
2019-02-27T13:19:22.746Z,16.80
2019-02-27T13:23:36.309Z,16.80
2019-02-27T13:27:46.888Z,16.90
2019-02-27T13:31:58.037Z,16.90
2019-02-27T13:36:13.020Z,16.90
2019-02-27T13:40:28.112Z,16.90
2019-02-27T13:44:39.334Z,16.90
2019-02-27T13:48:50.471Z,16.90
2019-02-27T13:53:01.619Z,16.80
2019-02-27T13:57:12.921Z,16.90
2019-02-27T14:01:25.092Z,17.00
2019-02-27T14:05:37.017Z,17.00
2019-02-27T14:09:51.657Z,17.00
2019-02-27T14:14:03.023Z,17.00
2019-02-27T14:18:16.164Z,17.10
2019-02-27T14:22:33.562Z,17.20
2019-02-27T14:26:55.057Z,17.10
2019-02-27T14:31:09.022Z,17.00
2019-02-27T14:35:29.041Z,17.00
2019-02-27T14:39:39.414Z,16.90
2019-02-27T14:43:50.519Z,16.90
2019-02-27T14:48:07.105Z,16.90
2019-02-27T14:52:18.745Z,16.90
2019-02-27T14:56:29.980Z,16.80
2019-02-27T15:00:43.952Z,16.80
2019-02-27T15:04:56.286Z,16.90
2019-02-27T15:09:13.049Z,16.80
2019-02-27T15:13:28.128Z,16.80
2019-02-27T15:17:37.454Z,16.80
2019-02-27T15:21:49.292Z,16.80
2019-02-27T15:26:02.060Z,16.90
2019-02-27T15:30:24.217Z,16.80
2019-02-27T15:34:35.809Z,16.80
2019-02-27T15:38:47.290Z,16.80
2019-02-27T15:42:59.484Z,16.80
2019-02-27T15:47:12.294Z,16.70
2019-02-27T15:51:24.525Z,16.70
2019-02-27T15:55:37.800Z,16.60
2019-02-27T15:59:50.378Z,16.50
2019-02-27T16:04:01.538Z,16.50
2019-02-27T16:08:12.695Z,16.40
2019-02-27T16:12:26.014Z,16.30
2019-02-27T16:16:39.360Z,16.30
2019-02-27T16:20:51.556Z,16.20
2019-02-27T16:25:02.795Z,16.00
2019-02-27T16:29:14.041Z,15.90
2019-02-27T16:33:25.177Z,15.90
2019-02-27T16:37:36.351Z,15.70
2019-02-27T16:41:47.503Z,15.50
2019-02-27T16:45:59.351Z,15.30
2019-02-27T16:50:24.364Z,15.10
2019-02-27T16:54:32.404Z,15.00
2019-02-27T16:58:42.987Z,14.80
2019-02-27T17:02:54.346Z,14.60
2019-02-27T17:07:06.942Z,14.50
2019-02-27T17:11:18.164Z,14.30
2019-02-27T17:15:34.546Z,14.10
2019-02-27T17:19:46.891Z,14.00
2019-02-27T17:23:58.072Z,13.90
2019-02-27T17:28:10.663Z,13.90
2019-02-27T17:32:21.798Z,13.80
2019-02-27T17:36:39.494Z,13.80
2019-02-27T17:40:52.553Z,13.70
2019-02-27T17:49:36.131Z,13.50
2019-02-27T17:53:48.508Z,13.40
2019-02-27T17:58:00.543Z,13.30
2019-02-27T18:02:11.947Z,13.20
2019-02-27T18:06:24.830Z,13.00
2019-02-27T18:10:38.258Z,12.80
2019-02-27T18:14:50.819Z,12.60
2019-02-27T18:19:02.491Z,12.40
2019-02-27T18:23:15.262Z,12.30
2019-02-27T18:27:28.034Z,12.10
2019-02-27T18:31:38.716Z,12.00
2019-02-27T18:35:50.412Z,11.90
2019-02-27T18:40:01.669Z,11.80
2019-02-27T18:44:12.947Z,11.80
2019-02-27T18:48:24.165Z,11.80
2019-02-27T18:52:38.234Z,11.80
2019-02-27T18:56:49.618Z,11.70
2019-02-27T19:01:01.953Z,11.60
2019-02-27T19:05:16.750Z,11.60
2019-02-27T19:09:29.345Z,11.50
2019-02-27T19:13:40.763Z,11.40
2019-02-27T19:17:52.271Z,11.40
2019-02-27T19:22:04.349Z,11.30
2019-02-27T19:26:16.705Z,11.30
2019-02-27T19:30:28.317Z,11.30
2019-02-27T19:34:41.483Z,11.20
2019-02-27T19:38:53.151Z,11.20
2019-02-27T19:43:05.960Z,11.10
2019-02-27T19:47:18.465Z,11.00
2019-02-27T19:51:30.834Z,10.80
2019-02-27T19:55:42.045Z,10.70
2019-02-27T19:59:58.657Z,10.60
2019-02-27T20:04:09.581Z,10.50
2019-02-27T20:08:19.622Z,10.40
2019-02-27T20:12:32.112Z,10.30
2019-02-27T20:16:43.350Z,10.30
2019-02-27T20:20:54.669Z,10.20
2019-02-27T20:25:09.756Z,10.20
2019-02-27T20:29:21.315Z,10.20
2019-02-27T20:33:34.290Z,10.20
2019-02-27T20:37:46.390Z,10.10
2019-02-27T20:41:57.518Z,10.00
2019-02-27T20:46:10.365Z,10.00
2019-02-27T20:50:41.018Z,9.90
2019-02-27T20:54:52.252Z,9.80
2019-02-27T20:59:03.405Z,9.70
2019-02-27T21:03:14.678Z,9.60
2019-02-27T21:07:26.787Z,9.60
2019-02-27T21:11:39.084Z,9.50
2019-02-27T21:15:52.574Z,9.40
2019-02-27T21:20:04.995Z,9.30
2019-02-27T21:24:16.166Z,9.20
2019-02-27T21:28:27.381Z,9.20
2019-02-27T21:32:38.647Z,9.20
2019-02-27T21:36:49.911Z,9.00
2019-02-27T21:41:01.127Z,8.90
2019-02-27T21:45:14.336Z,8.90
2019-02-27T21:49:26.426Z,8.80
2019-02-27T21:53:37.631Z,8.70
2019-02-27T21:57:48.860Z,8.60
2019-02-27T22:02:00.083Z,8.50
2019-02-27T22:06:11.307Z,8.50
2019-02-27T22:10:22.643Z,8.50
2019-02-27T22:14:33.733Z,8.50
2019-02-27T22:18:46.987Z,8.50
2019-02-27T22:22:57.729Z,8.40
2019-02-27T22:27:12.852Z,8.30
2019-02-27T22:31:22.837Z,8.20
2019-02-27T22:35:37.306Z,8.10
2019-02-27T22:39:46.809Z,8.00
2019-02-27T22:43:57.969Z,8.00
2019-02-27T22:48:09.784Z,7.90
2019-02-27T22:52:21.054Z,7.80
2019-02-27T22:56:33.303Z,7.80
2019-02-27T23:00:56.273Z,7.80
2019-02-27T23:05:07.840Z,7.90
2019-02-27T23:09:21.100Z,7.80
2019-02-27T23:13:32.224Z,7.90
2019-02-27T23:17:43.419Z,7.80
2019-02-27T23:21:57.562Z,7.70
2019-02-27T23:26:07.517Z,7.70
2019-02-27T23:30:18.747Z,7.70
2019-02-27T23:34:29.909Z,7.60
2019-02-27T23:38:41.165Z,7.60
2019-02-27T23:42:55.434Z,7.60
2019-02-27T23:47:06.576Z,7.60
2019-02-27T23:51:17.743Z,7.60
2019-02-27T23:55:29.775Z,7.60
2019-02-27T23:59:41.934Z,7.70
